sensor_id;sensor_type;location;lat;lon;timestamp;pressure;altitude;pressure_sealevel;temperature;humidity
37778;BME280;23615;51.506;7.678;2023-02-03T00:00:15;100826.47;;;8.04;100.00
37778;BME280;23615;51.506;7.678;2023-02-03T00:02:41;100823.19;;;8.02;100.00
37778;BME280;23615;51.506;7.678;2023-02-03T00:05:06;100826.59;;;7.96;100.00
37778;BME280;23615;51.506;7.678;2023-02-03T00:07:32;100809.81;;;7.96;100.00
37778;BME280;23615;51.506;7.678;2023-02-03T00:09:59;100819.34;;;8.05;100.00
37778;BME280;23615;51.506;7.678;2023-02-03T00:12:24;100816.50;;;8.06;100.00
37778;BME280;23615;51.506;7.678;2023-02-03T00:14:49;100816.69;;;8.05;100.00
37778;BME280;23615;51.506;7.678;2023-02-03T00:17:15;100822.34;;;8.02;100.00
37778;BME280;23615;51.506;7.678;2023-02-03T00:19:40;100818.06;;;8.01;100.00
37778;BME280;23615;51.506;7.678;2023-02-03T00:22:05;100796.59;;;8.02;100.00
37778;BME280;23615;51.506;7.678;2023-02-03T00:24:31;100814.03;;;8.05;100.00
37778;BME280;23615;51.506;7.678;2023-02-03T00:26:56;100804.41;;;8.04;100.00
37778;BME280;23615;51.506;7.678;2023-02-03T00:29:21;100808.81;;;7.97;100.00
37778;BME280;23615;51.506;7.678;2023-02-03T00:31:51;100802.75;;;8.03;100.00
37778;BME280;23615;51.506;7.678;2023-02-03T00:34:17;100804.22;;;8.05;100.00
37778;BME280;23615;51.506;7.678;2023-02-03T00:36:42;100794.94;;;8.01;100.00
37778;BME280;23615;51.506;7.678;2023-02-03T00:39:07;100796.06;;;8.07;100.00
37778;BME280;23615;51.506;7.678;2023-02-03T00:41:33;100795.59;;;8.03;100.00
37778;BME280;23615;51.506;7.678;2023-02-03T00:43:58;100796.88;;;8.07;100.00
37778;BME280;23615;51.506;7.678;2023-02-03T00:46:23;100807.50;;;8.07;100.00
37778;BME280;23615;51.506;7.678;2023-02-03T00:48:49;100801.19;;;8.08;100.00
37778;BME280;23615;51.506;7.678;2023-02-03T00:51:14;100798.84;;;7.99;100.00
37778;BME280;23615;51.506;7.678;2023-02-03T00:53:39;100796.88;;;8.07;100.00
37778;BME280;23615;51.506;7.678;2023-02-03T00:56:05;100817.25;;;8.21;100.00
37778;BME280;23615;51.506;7.678;2023-02-03T00:58:37;100804.56;;;8.17;100.00
37778;BME280;23615;51.506;7.678;2023-02-03T01:01:03;100820.31;;;8.18;100.00
37778;BME280;23615;51.506;7.678;2023-02-03T01:03:28;100819.63;;;8.10;100.00
37778;BME280;23615;51.506;7.678;2023-02-03T01:05:53;100823.88;;;8.11;100.00
37778;BME280;23615;51.506;7.678;2023-02-03T01:08:18;100824.72;;;8.11;100.00
37778;BME280;23615;51.506;7.678;2023-02-03T01:10:44;100836.44;;;8.17;100.00
37778;BME280;23615;51.506;7.678;2023-02-03T01:13:09;100841.59;;;8.18;100.00
37778;BME280;23615;51.506;7.678;2023-02-03T01:15:34;100841.59;;;8.18;100.00
37778;BME280;23615;51.506;7.678;2023-02-03T01:18:00;100851.09;;;8.13;100.00
37778;BME280;23615;51.506;7.678;2023-02-03T01:20:25;100856.16;;;8.08;100.00
37778;BME280;23615;51.506;7.678;2023-02-03T01:22:50;100871.06;;;8.23;100.00
37778;BME280;23615;51.506;7.678;2023-02-03T01:25:16;100861.38;;;8.16;100.00
37778;BME280;23615;51.506;7.678;2023-02-03T01:27:41;100846.13;;;8.24;100.00
37778;BME280;23615;51.506;7.678;2023-02-03T01:30:07;100845.31;;;8.24;100.00
37778;BME280;23615;51.506;7.678;2023-02-03T01:32:32;100837.69;;;8.21;100.00
37778;BME280;23615;51.506;7.678;2023-02-03T01:34:57;100842.84;;;8.22;100.00
37778;BME280;23615;51.506;7.678;2023-02-03T01:37:23;100842.00;;;8.22;100.00
37778;BME280;23615;51.506;7.678;2023-02-03T01:39:48;100839.75;;;8.19;100.00
37778;BME280;23615;51.506;7.678;2023-02-03T01:42:15;100842.59;;;8.17;100.00
37778;BME280;23615;51.506;7.678;2023-02-03T01:47:15;100839.66;;;8.12;100.00
37778;BME280;23615;51.506;7.678;2023-02-03T01:49:48;100855.22;;;8.15;100.00
37778;BME280;23615;51.506;7.678;2023-02-03T01:52:16;100852.63;;;8.22;100.00
37778;BME280;23615;51.506;7.678;2023-02-03T01:54:43;100867.59;;;8.23;100.00
37778;BME280;23615;51.506;7.678;2023-02-03T01:57:21;100840.75;;;8.18;100.00
37778;BME280;23615;51.506;7.678;2023-02-03T01:59:50;100832.50;;;8.13;100.00
37778;BME280;23615;51.506;7.678;2023-02-03T02:02:16;100839.16;;;8.23;100.00
37778;BME280;23615;51.506;7.678;2023-02-03T02:04:49;100823.47;;;8.28;100.00
37778;BME280;23615;51.506;7.678;2023-02-03T02:07:17;100829.09;;;8.34;100.00
37778;BME280;23615;51.506;7.678;2023-02-03T02:09:44;100825.59;;;8.33;100.00
37778;BME280;23615;51.506;7.678;2023-02-03T02:12:10;100831.56;;;8.20;100.00
37778;BME280;23615;51.506;7.678;2023-02-03T02:14:36;100836.16;;;8.12;100.00
37778;BME280;23615;51.506;7.678;2023-02-03T02:17:15;100823.16;;;8.17;100.00
37778;BME280;23615;51.506;7.678;2023-02-03T02:31:33;100776.00;;;8.25;100.00
37778;BME280;23615;51.506;7.678;2023-02-03T02:34:31;100774.53;;;8.23;100.00
37778;BME280;23615;51.506;7.678;2023-02-03T02:37:21;100770.63;;;8.19;100.00
37778;BME280;23615;51.506;7.678;2023-02-03T02:39:57;100770.63;;;8.19;100.00
37778;BME280;23615;51.506;7.678;2023-02-03T02:42:31;100770.06;;;8.23;100.00
37778;BME280;23615;51.506;7.678;2023-02-03T02:45:18;100765.69;;;8.16;100.00
37778;BME280;23615;51.506;7.678;2023-02-03T02:47:47;100770.72;;;8.11;100.00
37778;BME280;23615;51.506;7.678;2023-02-03T02:50:19;100762.56;;;8.12;100.00
37778;BME280;23615;51.506;7.678;2023-02-03T02:52:49;100764.41;;;8.12;100.00
37778;BME280;23615;51.506;7.678;2023-02-03T02:55:22;100753.78;;;8.12;100.00
37778;BME280;23615;51.506;7.678;2023-02-03T02:57:53;100767.53;;;8.15;100.00
37778;BME280;23615;51.506;7.678;2023-02-03T03:00:19;100771.19;;;8.14;100.00
37778;BME280;23615;51.506;7.678;2023-02-03T03:02:46;100760.38;;;8.16;100.00
37778;BME280;23615;51.506;7.678;2023-02-03T03:05:11;100760.00;;;8.19;100.00
37778;BME280;23615;51.506;7.678;2023-02-03T03:07:44;100778.22;;;8.22;100.00
37778;BME280;23615;51.506;7.678;2023-02-03T03:10:15;100818.91;;;8.22;100.00
37778;BME280;23615;51.506;7.678;2023-02-03T03:12:48;100824.53;;;8.13;100.00
37778;BME280;23615;51.506;7.678;2023-02-03T03:15:21;100817.25;;;8.21;100.00
37778;BME280;23615;51.506;7.678;2023-02-03T03:18:01;100803.31;;;8.19;100.00
37778;BME280;23615;51.506;7.678;2023-02-03T03:20:30;100791.31;;;8.23;100.00
37778;BME280;23615;51.506;7.678;2023-02-03T03:23:02;100797.47;;;8.24;100.00
37778;BME280;23615;51.506;7.678;2023-02-03T03:25:43;100781.63;;;8.16;100.00
37778;BME280;23615;51.506;7.678;2023-02-03T03:28:14;100781.50;;;8.24;100.00
37778;BME280;23615;51.506;7.678;2023-02-03T03:30:42;100766.75;;;8.21;100.00
37778;BME280;23615;51.506;7.678;2023-02-03T03:33:08;100761.19;;;8.16;100.00
37778;BME280;23615;51.506;7.678;2023-02-03T03:35:41;100793.09;;;8.16;100.00
37778;BME280;23615;51.506;7.678;2023-02-03T03:38:16;100802.72;;;8.17;100.00
37778;BME280;23615;51.506;7.678;2023-02-03T03:40:48;100794.94;;;8.16;100.00
37778;BME280;23615;51.506;7.678;2023-02-03T03:43:19;100796.56;;;8.17;100.00
37778;BME280;23615;51.506;7.678;2023-02-03T03:45:59;100778.63;;;8.19;100.00
37778;BME280;23615;51.506;7.678;2023-02-03T03:48:33;100779.69;;;8.24;100.00
37778;BME280;23615;51.506;7.678;2023-02-03T03:51:04;100775.56;;;8.22;100.00
37778;BME280;23615;51.506;7.678;2023-02-03T03:53:32;100772.25;;;8.20;100.00
37778;BME280;23615;51.506;7.678;2023-02-03T03:56:00;100771.06;;;8.22;100.00
37778;BME280;23615;51.506;7.678;2023-02-03T03:58:30;100785.38;;;8.21;100.00
37778;BME280;23615;51.506;7.678;2023-02-03T04:00:59;100790.13;;;8.26;100.00
37778;BME280;23615;51.506;7.678;2023-02-03T04:03:32;100800.84;;;8.33;99.95
37778;BME280;23615;51.506;7.678;2023-02-03T04:05:59;100806.81;;;8.35;99.59
37778;BME280;23615;51.506;7.678;2023-02-03T04:08:24;100780.75;;;8.30;99.58
37778;BME280;23615;51.506;7.678;2023-02-03T04:10:49;100776.44;;;8.29;99.65
37778;BME280;23615;51.506;7.678;2023-02-03T04:13:15;100763.34;;;8.27;100.00
37778;BME280;23615;51.506;7.678;2023-02-03T04:15:43;100758.78;;;8.21;99.58
37778;BME280;23615;51.506;7.678;2023-02-03T04:18:11;100760.25;;;8.24;100.00
37778;BME280;23615;51.506;7.678;2023-02-03T04:20:37;100765.94;;;8.21;99.76
37778;BME280;23615;51.506;7.678;2023-02-03T04:23:02;100767.41;;;8.23;99.61
37778;BME280;23615;51.506;7.678;2023-02-03T04:25:27;100762.13;;;8.30;99.81
37778;BME280;23615;51.506;7.678;2023-02-03T04:27:53;100763.16;;;8.29;99.69
37778;BME280;23615;51.506;7.678;2023-02-03T04:30:19;100776.38;;;8.22;99.30
37778;BME280;23615;51.506;7.678;2023-02-03T04:32:45;100776.50;;;8.14;99.29
37778;BME280;23615;51.506;7.678;2023-02-03T04:35:11;100771.84;;;8.16;99.67
37778;BME280;23615;51.506;7.678;2023-02-03T04:37:37;100777.69;;;8.12;99.50
37778;BME280;23615;51.506;7.678;2023-02-03T04:40:02;100771.66;;;8.18;99.30
37778;BME280;23615;51.506;7.678;2023-02-03T04:42:28;100765.22;;;8.12;98.73
37778;BME280;23615;51.506;7.678;2023-02-03T04:44:53;100774.50;;;8.16;99.31
37778;BME280;23615;51.506;7.678;2023-02-03T04:47:19;100760.56;;;8.14;99.02
37778;BME280;23615;51.506;7.678;2023-02-03T04:49:44;100733.78;;;8.16;98.76
37778;BME280;23615;51.506;7.678;2023-02-03T04:52:10;100739.34;;;8.21;99.07
37778;BME280;23615;51.506;7.678;2023-02-03T04:54:36;100734.69;;;8.23;99.24
37778;BME280;23615;51.506;7.678;2023-02-03T04:57:02;100709.50;;;8.19;99.46
37778;BME280;23615;51.506;7.678;2023-02-03T04:59:29;100715.06;;;8.24;99.46
37778;BME280;23615;51.506;7.678;2023-02-03T05:01:54;100718.28;;;8.19;98.98
37778;BME280;23615;51.506;7.678;2023-02-03T05:04:19;100744.66;;;8.21;99.34
37778;BME280;23615;51.506;7.678;2023-02-03T05:06:45;100741.63;;;8.24;99.13
37778;BME280;23615;51.506;7.678;2023-02-03T05:09:10;100740.25;;;8.28;98.76
37778;BME280;23615;51.506;7.678;2023-02-03T05:11:36;100745.50;;;8.21;99.01
37778;BME280;23615;51.506;7.678;2023-02-03T05:14:01;100744.47;;;8.22;99.33
37778;BME280;23615;51.506;7.678;2023-02-03T05:16:26;100741.81;;;8.22;99.08
37778;BME280;23615;51.506;7.678;2023-02-03T05:18:51;100717.91;;;8.22;98.80
37778;BME280;23615;51.506;7.678;2023-02-03T05:21:17;100716.34;;;8.28;99.18
37778;BME280;23615;51.506;7.678;2023-02-03T05:23:42;100726.88;;;8.36;98.98
37778;BME280;23615;51.506;7.678;2023-02-03T05:26:08;100731.25;;;8.29;99.18
37778;BME280;23615;51.506;7.678;2023-02-03T05:28:33;100744.28;;;8.24;98.62
37778;BME280;23615;51.506;7.678;2023-02-03T05:30:59;100732.88;;;8.30;98.82
37778;BME280;23615;51.506;7.678;2023-02-03T05:33:26;100719.00;;;8.28;98.86
37778;BME280;23615;51.506;7.678;2023-02-03T05:35:51;100728.34;;;8.24;98.95
37778;BME280;23615;51.506;7.678;2023-02-03T05:38:16;100731.66;;;8.26;98.48
37778;BME280;23615;51.506;7.678;2023-02-03T05:40:42;100716.25;;;8.21;98.52
37778;BME280;23615;51.506;7.678;2023-02-03T05:43:26;100708.47;;;8.20;98.94
37778;BME280;23615;51.506;7.678;2023-02-03T05:45:51;100720.00;;;8.27;98.84
37778;BME280;23615;51.506;7.678;2023-02-03T05:48:17;100722.09;;;8.32;99.18
37778;BME280;23615;51.506;7.678;2023-02-03T05:50:42;100722.25;;;8.30;98.11
37778;BME280;23615;51.506;7.678;2023-02-03T05:53:07;100726.88;;;8.36;98.30
37778;BME280;23615;51.506;7.678;2023-02-03T05:55:33;100721.09;;;8.33;98.07
37778;BME280;23615;51.506;7.678;2023-02-03T05:57:59;100709.78;;;8.31;98.33
37778;BME280;23615;51.506;7.678;2023-02-03T06:00:25;100719.44;;;8.32;98.24
37778;BME280;23615;51.506;7.678;2023-02-03T06:02:52;100725.09;;;8.28;97.83
37778;BME280;23615;51.506;7.678;2023-02-03T06:05:19;100707.13;;;8.31;98.51
37778;BME280;23615;51.506;7.678;2023-02-03T06:07:44;100716.13;;;8.30;98.35
37778;BME280;23615;51.506;7.678;2023-02-03T06:10:10;100727.22;;;8.33;97.98
37778;BME280;23615;51.506;7.678;2023-02-03T06:12:36;100716.94;;;8.30;97.80
37778;BME280;23615;51.506;7.678;2023-02-03T06:15:03;100714.13;;;8.32;97.64
37778;BME280;23615;51.506;7.678;2023-02-03T06:17:28;100726.69;;;8.23;98.70
37778;BME280;23615;51.506;7.678;2023-02-03T06:19:53;100707.09;;;8.24;98.88
37778;BME280;23615;51.506;7.678;2023-02-03T06:22:18;100711.19;;;8.26;98.81
37778;BME280;23615;51.506;7.678;2023-02-03T06:24:44;100706.91;;;8.25;98.58
37778;BME280;23615;51.506;7.678;2023-02-03T06:27:10;100714.81;;;8.19;98.61
37778;BME280;23615;51.506;7.678;2023-02-03T06:33:02;100716.25;;;8.21;98.69
37778;BME280;23615;51.506;7.678;2023-02-03T06:35:28;100713.03;;;8.26;99.41
37778;BME280;23615;51.506;7.678;2023-02-03T06:37:53;100727.97;;;8.27;98.68
37778;BME280;23615;51.506;7.678;2023-02-03T06:40:18;100733.84;;;8.22;99.45
37778;BME280;23615;51.506;7.678;2023-02-03T06:42:45;100713.22;;;8.24;99.87
37778;BME280;23615;51.506;7.678;2023-02-03T06:45:11;100724.41;;;8.20;99.34
37778;BME280;23615;51.506;7.678;2023-02-03T06:47:39;100724.88;;;8.23;100.00
37778;BME280;23615;51.506;7.678;2023-02-03T06:50:04;100728.72;;;8.21;100.00
37778;BME280;23615;51.506;7.678;2023-02-03T06:52:30;100724.22;;;8.21;100.00
37778;BME280;23615;51.506;7.678;2023-02-03T06:54:55;100716.00;;;8.16;99.93
37778;BME280;23615;51.506;7.678;2023-02-03T06:57:20;100726.47;;;8.18;99.89
37778;BME280;23615;51.506;7.678;2023-02-03T06:59:46;100744.44;;;8.16;100.00
37778;BME280;23615;51.506;7.678;2023-02-03T07:02:11;100723.81;;;8.18;100.00
37778;BME280;23615;51.506;7.678;2023-02-03T07:04:36;100727.06;;;8.20;100.00
37778;BME280;23615;51.506;7.678;2023-02-03T07:07:03;100749.75;;;8.16;100.00
37778;BME280;23615;51.506;7.678;2023-02-03T07:09:28;100749.81;;;8.22;100.00
37778;BME280;23615;51.506;7.678;2023-02-03T07:11:53;100748.22;;;8.07;100.00
37778;BME280;23615;51.506;7.678;2023-02-03T07:14:18;100744.97;;;8.11;100.00
37778;BME280;23615;51.506;7.678;2023-02-03T07:16:44;100736.72;;;8.00;100.00
37778;BME280;23615;51.506;7.678;2023-02-03T07:19:09;100749.47;;;8.11;100.00
37778;BME280;23615;51.506;7.678;2023-02-03T07:21:34;100742.13;;;8.13;100.00
37778;BME280;23615;51.506;7.678;2023-02-03T07:24:00;100753.09;;;8.03;100.00
37778;BME280;23615;51.506;7.678;2023-02-03T07:26:27;100738.75;;;7.83;100.00
37778;BME280;23615;51.506;7.678;2023-02-03T07:28:52;100739.41;;;7.85;100.00
37778;BME280;23615;51.506;7.678;2023-02-03T07:31:18;100741.34;;;7.76;100.00
37778;BME280;23615;51.506;7.678;2023-02-03T07:33:44;100742.19;;;7.77;100.00
37778;BME280;23615;51.506;7.678;2023-02-03T07:36:10;100742.06;;;7.85;100.00
37778;BME280;23615;51.506;7.678;2023-02-03T07:38:35;100736.38;;;7.88;100.00
37778;BME280;23615;51.506;7.678;2023-02-03T07:41:03;100732.91;;;7.87;100.00
37778;BME280;23615;51.506;7.678;2023-02-03T07:43:28;100750.91;;;7.92;100.00
37778;BME280;23615;51.506;7.678;2023-02-03T07:45:53;100736.75;;;7.85;100.00
37778;BME280;23615;51.506;7.678;2023-02-03T07:48:19;100740.03;;;7.87;100.00
37778;BME280;23615;51.506;7.678;2023-02-03T07:50:47;100751.63;;;7.79;100.00
37778;BME280;23615;51.506;7.678;2023-02-03T07:53:12;100738.56;;;7.84;100.00
37778;BME280;23615;51.506;7.678;2023-02-03T07:55:37;100732.53;;;7.91;100.00
37778;BME280;23615;51.506;7.678;2023-02-03T07:58:04;100729.22;;;7.88;100.00
37778;BME280;23615;51.506;7.678;2023-02-03T08:00:29;100727.59;;;7.87;100.00
37778;BME280;23615;51.506;7.678;2023-02-03T08:02:54;100738.91;;;7.96;100.00
37778;BME280;23615;51.506;7.678;2023-02-03T08:05:20;100735.50;;;8.02;100.00
37778;BME280;23615;51.506;7.678;2023-02-03T08:07:45;100735.69;;;8.01;100.00
37778;BME280;23615;51.506;7.678;2023-02-03T08:10:12;100729.34;;;8.02;100.00
37778;BME280;23615;51.506;7.678;2023-02-03T08:12:38;100731.44;;;8.06;100.00
37778;BME280;23615;51.506;7.678;2023-02-03T08:15:04;100722.41;;;8.01;100.00
37778;BME280;23615;51.506;7.678;2023-02-03T08:17:30;100735.50;;;8.02;100.00
37778;BME280;23615;51.506;7.678;2023-02-03T08:19:57;100729.81;;;8.05;100.00
37778;BME280;23615;51.506;7.678;2023-02-03T08:22:22;100749.47;;;8.11;100.00
37778;BME280;23615;51.506;7.678;2023-02-03T08:24:47;100733.34;;;8.12;100.00
37778;BME280;23615;51.506;7.678;2023-02-03T08:27:20;100735.81;;;8.14;100.00
37778;BME280;23615;51.506;7.678;2023-02-03T08:29:46;100758.91;;;8.13;100.00
37778;BME280;23615;51.506;7.678;2023-02-03T08:32:17;100737.69;;;8.20;100.00
37778;BME280;23615;51.506;7.678;2023-02-03T08:34:43;100735.50;;;8.23;100.00
37778;BME280;23615;51.506;7.678;2023-02-03T08:37:11;100718.53;;;8.24;100.00
37778;BME280;23615;51.506;7.678;2023-02-03T08:39:37;100720.94;;;8.19;100.00
37778;BME280;23615;51.506;7.678;2023-02-03T08:42:03;100709.38;;;8.27;100.00
37778;BME280;23615;51.506;7.678;2023-02-03T08:44:29;100711.63;;;8.30;100.00
37778;BME280;23615;51.506;7.678;2023-02-03T08:46:55;100723.84;;;8.24;100.00
37778;BME280;23615;51.506;7.678;2023-02-03T08:49:21;100736.97;;;8.26;100.00
37778;BME280;23615;51.506;7.678;2023-02-03T08:51:47;100739.63;;;8.26;100.00
37778;BME280;23615;51.506;7.678;2023-02-03T08:54:12;100737.34;;;8.23;100.00
37778;BME280;23615;51.506;7.678;2023-02-03T08:56:38;100744.94;;;8.26;100.00
37778;BME280;23615;51.506;7.678;2023-02-03T08:59:03;100754.97;;;8.31;100.00
37778;BME280;23615;51.506;7.678;2023-02-03T09:01:29;100743.94;;;8.27;100.00
37778;BME280;23615;51.506;7.678;2023-02-03T09:03:54;100739.81;;;8.24;100.00
37778;BME280;23615;51.506;7.678;2023-02-03T09:06:20;100756.94;;;8.22;100.00
37778;BME280;23615;51.506;7.678;2023-02-03T09:08:46;100747.31;;;8.21;100.00
37778;BME280;23615;51.506;7.678;2023-02-03T09:11:14;100758.59;;;8.23;100.00
37778;BME280;23615;51.506;7.678;2023-02-03T09:13:40;100744.28;;;8.24;100.00
37778;BME280;23615;51.506;7.678;2023-02-03T09:16:09;100747.59;;;8.26;100.00
37778;BME280;23615;51.506;7.678;2023-02-03T09:18:35;100748.84;;;8.30;100.00
37778;BME280;23615;51.506;7.678;2023-02-03T09:21:05;100756.09;;;8.36;100.00
37778;BME280;23615;51.506;7.678;2023-02-03T09:23:30;100747.13;;;8.37;100.00
37778;BME280;23615;51.506;7.678;2023-02-03T09:26:01;100753.88;;;8.40;100.00
37778;BME280;23615;51.506;7.678;2023-02-03T09:28:26;100750.16;;;8.34;100.00
37778;BME280;23615;51.506;7.678;2023-02-03T09:30:52;100740.34;;;8.35;100.00
37778;BME280;23615;51.506;7.678;2023-02-03T09:33:17;100752.22;;;8.39;100.00
37778;BME280;23615;51.506;7.678;2023-02-03T09:35:51;100748.50;;;8.33;100.00
37778;BME280;23615;51.506;7.678;2023-02-03T09:38:16;100746.84;;;8.32;100.00
37778;BME280;23615;51.506;7.678;2023-02-03T09:40:41;100763.34;;;8.27;100.00
37778;BME280;23615;51.506;7.678;2023-02-03T09:43:34;100732.06;;;8.30;100.00
37778;BME280;23615;51.506;7.678;2023-02-03T09:46:10;100745.22;;;8.31;100.00
37778;BME280;23615;51.506;7.678;2023-02-03T09:48:41;100750.16;;;8.34;100.00
37778;BME280;23615;51.506;7.678;2023-02-03T09:51:17;100739.75;;;8.39;100.00
37778;BME280;23615;51.506;7.678;2023-02-03T09:53:49;100740.97;;;8.37;100.00
37778;BME280;23615;51.506;7.678;2023-02-03T09:56:45;100747.53;;;8.41;100.00
37778;BME280;23615;51.506;7.678;2023-02-03T09:59:16;100746.53;;;8.42;100.00
37778;BME280;23615;51.506;7.678;2023-02-03T10:01:59;100756.34;;;8.41;100.00
37778;BME280;23615;51.506;7.678;2023-02-03T10:04:37;100758.00;;;8.42;100.00
37778;BME280;23615;51.506;7.678;2023-02-03T10:07:12;100789.06;;;8.42;100.00
37778;BME280;23615;51.506;7.678;2023-02-03T10:15:17;100766.69;;;8.57;100.00
37778;BME280;23615;51.506;7.678;2023-02-03T10:17:51;100775.31;;;8.59;100.00
37778;BME280;23615;51.506;7.678;2023-02-03T10:20:22;100776.09;;;8.53;100.00
37778;BME280;23615;51.506;7.678;2023-02-03T10:22:55;100761.53;;;8.49;100.00
37778;BME280;23615;51.506;7.678;2023-02-03T10:25:58;100771.78;;;8.52;100.00
37778;BME280;23615;51.506;7.678;2023-02-03T10:28:36;100768.50;;;8.50;100.00
37778;BME280;23615;51.506;7.678;2023-02-03T10:31:11;100779.94;;;8.51;100.00
37778;BME280;23615;51.506;7.678;2023-02-03T10:33:37;100778.13;;;8.51;100.00
37778;BME280;23615;51.506;7.678;2023-02-03T10:36:20;100776.59;;;8.63;100.00
37778;BME280;23615;51.506;7.678;2023-02-03T10:41:18;100780.13;;;8.71;100.00
37778;BME280;23615;51.506;7.678;2023-02-03T10:43:48;100773.13;;;8.63;100.00
37778;BME280;23615;51.506;7.678;2023-02-03T10:46:31;100783.75;;;8.63;100.00
37778;BME280;23615;51.506;7.678;2023-02-03T10:48:58;100788.25;;;8.62;100.00
37778;BME280;23615;51.506;7.678;2023-02-03T10:51:29;100791.28;;;8.59;100.00
37778;BME280;23615;51.506;7.678;2023-02-03T10:53:56;100777.59;;;8.62;100.00
37778;BME280;23615;51.506;7.678;2023-02-03T10:56:25;100776.78;;;8.62;100.00
37778;BME280;23615;51.506;7.678;2023-02-03T10:58:53;100771.06;;;8.65;100.00
37778;BME280;23615;51.506;7.678;2023-02-03T11:01:22;100742.84;;;8.64;100.00
37778;BME280;23615;51.506;7.678;2023-02-03T11:03:58;100756.38;;;8.69;100.00
37778;BME280;23615;51.506;7.678;2023-02-03T11:06:24;100745.91;;;8.68;100.00
37778;BME280;23615;51.506;7.678;2023-02-03T11:08:51;100753.34;;;8.72;100.00
37778;BME280;23615;51.506;7.678;2023-02-03T11:11:27;100786.69;;;8.75;100.00
37778;BME280;23615;51.506;7.678;2023-02-03T11:14:10;100781.38;;;8.75;100.00
37778;BME280;23615;51.506;7.678;2023-02-03T11:16:36;100800.63;;;8.77;100.00
37778;BME280;23615;51.506;7.678;2023-02-03T11:19:04;100788.59;;;8.81;100.00
37778;BME280;23615;51.506;7.678;2023-02-03T11:21:40;100776.53;;;8.85;100.00
37778;BME280;23615;51.506;7.678;2023-02-03T11:24:30;100781.47;;;8.88;100.00
37778;BME280;23615;51.506;7.678;2023-02-03T11:27:03;100778.00;;;8.87;100.00
37778;BME280;23615;51.506;7.678;2023-02-03T11:29:33;100799.25;;;8.81;100.00
37778;BME280;23615;51.506;7.678;2023-02-03T11:32:03;100802.31;;;8.84;100.00
37778;BME280;23615;51.506;7.678;2023-02-03T11:34:33;100803.16;;;8.85;100.00
37778;BME280;23615;51.506;7.678;2023-02-03T11:39:55;100809.94;;;8.87;100.00
37778;BME280;23615;51.506;7.678;2023-02-03T11:42:23;100806.06;;;8.90;100.00
37778;BME280;23615;51.506;7.678;2023-02-03T11:44:48;100825.91;;;8.87;100.00
37778;BME280;23615;51.506;7.678;2023-02-03T11:47:15;100807.44;;;8.86;100.00
37778;BME280;23615;51.506;7.678;2023-02-03T11:52:38;100794.34;;;8.84;100.00
37778;BME280;23615;51.506;7.678;2023-02-03T11:55:29;100784.63;;;8.70;100.00
37778;BME280;23615;51.506;7.678;2023-02-03T11:58:13;100772.97;;;8.71;100.00
37778;BME280;23615;51.506;7.678;2023-02-03T12:01:12;100752.50;;;8.72;100.00
37778;BME280;23615;51.506;7.678;2023-02-03T12:09:07;100774.63;;;8.72;100.00
37778;BME280;23615;51.506;7.678;2023-02-03T12:12:03;100766.56;;;8.66;100.00
37778;BME280;23615;51.506;7.678;2023-02-03T12:14:51;100786.63;;;8.68;100.00
37778;BME280;23615;51.506;7.678;2023-02-03T12:22:33;100801.63;;;8.76;100.00
37778;BME280;23615;51.506;7.678;2023-02-03T12:30:29;100793.19;;;8.93;100.00
37778;BME280;23615;51.506;7.678;2023-02-03T12:33:00;100792.13;;;8.88;100.00
37778;BME280;23615;51.506;7.678;2023-02-03T12:35:37;100787.84;;;8.93;100.00
37778;BME280;23615;51.506;7.678;2023-02-03T12:43:31;100804.72;;;9.00;100.00
37778;BME280;23615;51.506;7.678;2023-02-03T12:46:34;100808.44;;;9.06;100.00
37778;BME280;23615;51.506;7.678;2023-02-03T12:51:38;100799.25;;;9.09;100.00
37778;BME280;23615;51.506;7.678;2023-02-03T12:56:39;100808.13;;;9.22;100.00
37778;BME280;23615;51.506;7.678;2023-02-03T12:59:14;100798.22;;;9.10;100.00
37778;BME280;23615;51.506;7.678;2023-02-03T13:02:29;100789.78;;;9.06;100.00
37778;BME280;23615;51.506;7.678;2023-02-03T13:04:43;100800.66;;;9.11;100.00
37778;BME280;23615;51.506;7.678;2023-02-03T13:07:20;100811.75;;;9.15;100.00
37778;BME280;23615;51.506;7.678;2023-02-03T13:10:30;100806.78;;;9.05;100.00
37778;BME280;23615;51.506;7.678;2023-02-03T13:12:55;100792.09;;;9.09;100.00
37778;BME280;23615;51.506;7.678;2023-02-03T13:15:42;100798.81;;;9.12;100.00
37778;BME280;23615;51.506;7.678;2023-02-03T13:18:24;100810.94;;;9.14;100.00
37778;BME280;23615;51.506;7.678;2023-02-03T13:20:52;100805.97;;;9.05;100.00
37778;BME280;23615;51.506;7.678;2023-02-03T13:23:18;100823.13;;;9.02;100.00
37778;BME280;23615;51.506;7.678;2023-02-03T13:40:09;100810.94;;;8.37;100.00
37778;BME280;23615;51.506;7.678;2023-02-03T13:42:40;100821.34;;;8.39;100.00
37778;BME280;23615;51.506;7.678;2023-02-03T13:45:36;100833.63;;;8.40;100.00
37778;BME280;23615;51.506;7.678;2023-02-03T13:48:15;100821.63;;;8.44;100.00
37778;BME280;23615;51.506;7.678;2023-02-03T13:50:43;100829.16;;;8.40;100.00
37778;BME280;23615;51.506;7.678;2023-02-03T13:53:22;100833.91;;;8.45;100.00
37778;BME280;23615;51.506;7.678;2023-02-03T13:55:59;100827.78;;;8.30;100.00
37778;BME280;23615;51.506;7.678;2023-02-03T13:58:31;100841.75;;;8.32;100.00
37778;BME280;23615;51.506;7.678;2023-02-03T14:01:00;100844.22;;;8.33;100.00
37778;BME280;23615;51.506;7.678;2023-02-03T14:05:56;100860.81;;;8.35;100.00
37778;BME280;23615;51.506;7.678;2023-02-03T14:16:41;100869.50;;;8.44;100.00
37778;BME280;23615;51.506;7.678;2023-02-03T14:21:55;100885.63;;;8.42;100.00
37778;BME280;23615;51.506;7.678;2023-02-03T14:24:29;100898.66;;;8.37;100.00
37778;BME280;23615;51.506;7.678;2023-02-03T14:26:56;100895.81;;;8.39;100.00
37778;BME280;23615;51.506;7.678;2023-02-03T14:29:25;100908.56;;;8.43;100.00